EDT,Max TemperatureF,Mean TemperatureF,Min TemperatureF,Max Dew PointF,MeanDew PointF,Min DewpointF,Max Humidity, Mean Humidity, Min Humidity, Max Sea Level PressureIn, Mean Sea Level PressureIn, Min Sea Level PressureIn, Max VisibilityMiles, Mean VisibilityMiles, Min VisibilityMiles, Max Wind SpeedMPH, Mean Wind SpeedMPH, Max Gust SpeedMPH,PrecipitationIn, CloudCover, Events, WindDirDegrees
2013-10-1,77,63,51,60,56,50,100,83,51,30.11,30.06,30.04,10,6,0,10,1,,0.01,2,Fog,236
2013-10-2,79,67,55,62,57,52,96,81,50,30.14,30.09,30.06,10,7,0,7,1,,0.00,1,Fog,249
2013-10-3,81,68,57,64,60,55,100,84,54,30.13,30.09,30.03,10,5,0,6,1,,0.02,1,Fog-Rain,252
2013-10-4,82,71,62,66,62,60,100,79,52,30.14,30.08,30.04,10,8,0,10,2,,0.01,3,Fog,224
2013-10-5,82,71,60,65,63,58,97,78,52,30.11,30.06,29.98,10,9,4,9,2,,0.00,1,Fog,212
2013-10-6,84,73,62,64,59,56,94,67,40,29.98,29.89,29.77,10,9,2,18,4,23,0.00,1,,195
2013-10-7,71,58,45,57,49,41,94,79,51,30.15,29.91,29.71,10,8,2,22,8,30,0.32,6,Rain,242
2013-10-8,66,52,37,47,41,36,100,78,42,30.29,30.23,30.15,10,7,0,10,2,17,0.00,0,Fog,39
2013-10-9,71,54,39,47,41,37,97,67,34,30.30,30.24,30.19,10,10,8,12,2,,0.00,0,,49
2013-10-10,71,62,52,54,48,39,83,65,53,30.19,30.13,30.05,10,10,10,10,4,,0.00,3,Rain,44
2013-10-11,60,56,53,55,53,51,94,86,77,30.08,30.05,30.01,10,9,5,10,7,,0.00,8,Rain,19
2013-10-12,75,65,55,60,56,54,94,80,60,30.13,30.08,30.03,10,9,7,9,4,,0.00,7,,48
2013-10-13,75,64,55,58,55,52,90,74,55,30.22,30.19,30.13,10,10,10,7,2,,0.00,5,,62
2013-10-14,64,60,57,59,57,55,100,86,77,30.29,30.24,30.19,10,7,1,8,3,,0.00,8,,33
2013-10-15,73,63,53,58,55,52,100,87,53,30.22,30.13,29.99,10,5,0,5,1,,0.01,2,Fog,30
2013-10-16,70,62,54,59,55,47,93,78,58,30.01,29.95,29.90,10,10,7,12,3,,0.00,6,Rain,218
2013-10-17,66,58,50,63,56,46,100,91,82,29.96,29.86,29.69,10,4,1,22,3,32,0.30,8,Rain,252
2013-10-18,61,52,42,46,41,37,90,71,41,30.06,30.00,29.94,10,9,5,9,5,,0.00,1,,244
2013-10-19,54,44,35,47,39,34,100,88,76,29.99,29.91,29.81,10,6,0,18,2,30,0.05,5,Fog-Rain,247
2013-10-20,57,47,37,40,36,33,93,75,42,30.09,30.04,29.99,10,9,6,13,6,21,0.00,3,,224
2013-10-21,66,49,34,40,36,32,92,63,32,30.09,30.01,29.89,10,10,9,14,2,17,0.00,1,,219
2013-10-22,55,46,36,45,38,32,93,72,50,29.99,29.92,29.86,10,9,3,13,6,17,0.18,5,Rain,248
2013-10-23,39,36,33,37,35,33,100,91,86,29.99,29.86,29.75,10,8,3,10,3,20,0.51,8,Rain,313
2013-10-24,41,36,30,34,32,28,93,81,65,30.19,30.07,29.97,10,9,2,15,7,28,0.08,7,Rain-Snow,248
2013-10-25,46,36,28,32,29,26,93,80,58,30.40,30.32,30.20,10,9,5,10,4,,0.01,5,,210
2013-10-26,51,40,30,28,26,23,82,57,35,30.31,30.12,29.96,10,10,10,17,6,26,0.00,3,,216
2013-10-27,55,44,35,34,31,26,86,60,41,30.12,30.07,30.01,10,10,10,10,4,,0.00,1,,249
2013-10-28,62,44,28,39,34,27,92,70,38,30.28,30.21,30.12,10,9,5,8,1,,0.00,0,,300
2013-10-29,62,47,32,40,35,30,96,70,36,30.38,30.31,30.24,10,9,5,6,0,,0.00,0,,37
2013-10-30,59,52,46,56,50,39,94,85,74,30.22,30.17,30.11,10,8,2,4,0,,0.00,8,Rain,115
2013-10-31,70,63,57,56,54,50,93,73,51,30.09,29.88,29.52,10,9,7,16,5,23,0.08,7,Rain,190